Time;durP1;ratioP1;P1;durP2;ratioP2;P2;SDS_P1;SDS_P2;PMS_P1;PMS_P2;Temp;Humidity;BMP_temperature;BMP_pressure;BME280_temperature;BME280_humidity;BME280_pressure;Samples;Min_cycle;Max_cycle;Signal;HPM_P1;HPM_P2
2022/09/07 00:01:13;;;;;;;67.13;25.80;;;;;;;18.16;100.00;100925.72;5027680;28;20065;-83
2022/09/07 00:03:44;;;;;;;72.50;27.90;;;;;;;18.38;100.00;100918.63;5039219;28;20504;-84
2022/09/07 00:06:16;;;;;;;60.92;23.38;;;;;;;18.17;100.00;100914.47;5011966;28;20102;-84
2022/09/07 00:08:45;;;;;;;51.25;23.33;;;;;;;18.20;100.00;100921.56;5023913;28;20500;-84
2022/09/07 00:11:16;;;;;;;63.65;25.58;;;;;;;18.34;100.00;100908.94;5021717;28;20072;-84
2022/09/07 00:13:46;;;;;;;61.72;23.85;;;;;;;18.27;100.00;100897.66;5024551;28;20033;-84
2022/09/07 00:16:18;;;;;;;71.40;25.70;;;;;;;18.40;100.00;100905.50;5051830;28;20029;-83
2022/09/07 00:18:45;;;;;;;72.25;27.45;;;;;;;18.47;100.00;100898.22;5021912;28;20556;-83
2022/09/07 00:21:17;;;;;;;56.92;23.88;;;;;;;18.45;100.00;100910.53;5030370;28;20502;-83
2022/09/07 00:23:47;;;;;;;70.00;26.05;;;;;;;18.44;100.00;100906.88;4997032;28;20068;-83
2022/09/07 00:26:17;;;;;;;58.78;23.52;;;;;;;18.42;100.00;100900.63;5024420;28;20117;-83
2022/09/07 00:28:51;;;;;;;72.47;27.50;;;;;;;18.53;100.00;100891.97;5020154;28;20445;-83
2022/09/07 00:31:21;;;;;;;72.38;29.58;;;;;;;18.54;100.00;100878.97;5030098;28;20068;-83
2022/09/07 00:33:50;;;;;;;100.15;41.83;;;;;;;18.35;100.00;100867.19;5003836;28;20436;-83
2022/09/07 00:36:20;;;;;;;133.55;48.08;;;;;;;18.45;100.00;100871.72;5029972;28;20033;-84
2022/09/07 00:38:45;;;;;;;142.20;55.15;;;;;;;18.50;100.00;100864.59;5018160;28;20033;-83
2022/09/07 00:41:14;;;;;;;117.35;49.97;;;;;;;18.37;100.00;100872.56;5033747;28;20045;-83
2022/09/07 00:43:44;;;;;;;118.50;51.05;;;;;;;18.27;100.00;100869.09;5027749;28;20026;-82
2022/09/07 00:46:22;;;;;;;121.75;50.92;;;;;;;18.24;100.00;100894.38;5018076;28;20041;-83
2022/09/07 00:49:18;;;;;;;161.63;65.53;;;;;;;18.23;100.00;100884.31;5007876;28;20397;-83
2022/09/07 00:51:53;;;;;;;138.15;57.40;;;;;;;18.28;100.00;100887.44;5019713;28;20042;-83
2022/09/07 00:54:45;;;;;;;139.90;58.08;;;;;;;18.06;100.00;100880.66;5032238;28;20030;-83
2022/09/07 00:57:15;;;;;;;170.68;62.03;;;;;;;18.25;100.00;100898.88;5028467;28;20033;-83
2022/09/07 00:59:51;;;;;;;139.48;59.03;;;;;;;18.13;100.00;100901.97;5033952;28;20056;-83
2022/09/07 01:02:18;;;;;;;126.15;54.53;;;;;;;18.00;100.00;100893.28;5020332;28;20128;-83
2022/09/07 01:04:47;;;;;;;122.35;51.30;;;;;;;17.94;100.00;100893.97;5028885;28;20405;-82
2022/09/07 01:07:13;;;;;;;108.35;45.67;;;;;;;17.82;100.00;100885.94;5023813;28;20076;-82
2022/09/07 01:09:39;;;;;;;91.28;42.50;;;;;;;17.74;100.00;100885.91;5015445;28;20042;-83
2022/09/07 01:12:13;;;;;;;112.82;45.78;;;;;;;17.89;100.00;100894.47;5020537;28;20198;-83
2022/09/07 01:14:50;;;;;;;97.22;42.03;;;;;;;17.71;100.00;100893.66;5002356;28;20037;-83
2022/09/07 01:17:25;;;;;;;108.90;45.43;;;;;;;17.76;100.00;100897.69;5016119;28;20501;-82
2022/09/07 01:20:17;;;;;;;99.85;41.90;;;;;;;17.78;100.00;100892.84;5017883;28;20688;-83
2022/09/07 01:22:52;;;;;;;115.80;46.23;;;;;;;17.86;100.00;100907.78;5018880;28;20033;-83
2022/09/07 01:25:33;;;;;;;93.72;44.03;;;;;;;17.88;100.00;100897.41;5017544;28;20033;-83
2022/09/07 01:28:19;;;;;;;91.90;39.90;;;;;;;17.75;100.00;100895.94;5003151;28;20437;-83
2022/09/07 01:31:08;;;;;;;99.00;44.22;;;;;;;17.75;100.00;100901.47;5024185;28;20029;-83
2022/09/07 01:34:07;;;;;;;101.78;43.08;;;;;;;17.76;100.00;100897.69;5013632;28;20037;-83
2022/09/07 01:36:56;;;;;;;100.53;41.53;;;;;;;17.75;100.00;100907.00;5032596;28;20072;-83
2022/09/07 01:39:55;;;;;;;98.00;43.22;;;;;;;17.81;100.00;100902.72;5002633;28;20025;-83
2022/09/07 01:42:31;;;;;;;93.70;40.55;;;;;;;17.78;100.00;100900.28;5032718;28;20052;-83
2022/09/07 01:45:01;;;;;;;87.68;39.17;;;;;;;17.68;100.00;100894.03;5030026;28;20363;-83
2022/09/07 01:47:38;;;;;;;100.70;41.90;;;;;;;17.81;100.00;100895.28;5026329;28;20033;-83
2022/09/07 01:50:15;;;;;;;104.65;43.72;;;;;;;17.83;100.00;100898.72;5016617;28;20038;-83
2022/09/07 01:53:07;;;;;;;91.78;41.55;;;;;;;17.71;100.00;100902.88;5036594;28;20481;-83
2022/09/07 01:55:45;;;;;;;87.22;40.35;;;;;;;17.66;100.00;100888.66;5029136;28;20038;-83
2022/09/07 01:58:25;;;;;;;113.30;43.63;;;;;;;17.67;100.00;100892.28;5034103;28;20052;-84
2022/09/07 02:01:13;;;;;;;113.15;47.72;;;;;;;17.73;100.00;100898.00;5019619;28;20389;-84
2022/09/07 02:03:54;;;;;;;122.63;46.90;;;;;;;17.72;100.00;100895.41;5004919;28;20044;-84
2022/09/07 02:06:27;;;;;;;108.20;46.28;;;;;;;17.67;100.00;100900.59;5024655;28;20038;-83
2022/09/07 02:09:02;;;;;;;125.25;48.80;;;;;;;17.88;100.00;100902.97;5016292;28;20084;-83
2022/09/07 02:11:36;;;;;;;121.82;47.97;;;;;;;17.84;100.00;100905.16;5016890;28;20060;-83
2022/09/07 02:14:10;;;;;;;125.38;49.25;;;;;;;17.80;100.00;100888.00;5024809;28;20434;-84
2022/09/07 02:16:47;;;;;;;93.55;39.58;;;;;;;17.78;100.00;100881.75;5018844;28;20389;-84
2022/09/07 02:19:15;;;;;;;105.43;44.08;;;;;;;17.72;100.00;100879.66;5032911;28;20039;-83
2022/09/07 02:21:54;;;;;;;96.18;41.40;;;;;;;17.80;100.00;100879.69;5049432;28;20079;-83
2022/09/07 02:24:34;;;;;;;111.68;47.50;;;;;;;17.80;100.00;100884.38;5041743;28;20124;-81
2022/09/07 02:27:06;;;;;;;82.80;38.88;;;;;;;17.68;100.00;100882.94;5023729;28;20044;-79
2022/09/07 02:29:39;;;;;;;93.95;37.65;;;;;;;17.56;100.00;100887.91;5027669;28;20485;-79
2022/09/07 02:32:05;;;;;;;81.53;39.25;;;;;;;17.72;100.00;100890.72;5014700;28;20496;-78
2022/09/07 02:34:31;;;;;;;91.57;40.53;;;;;;;17.79;100.00;100893.69;5024495;28;20042;-78
2022/09/07 02:37:00;;;;;;;83.70;39.20;;;;;;;17.86;100.00;100891.16;5015840;28;20052;-79
2022/09/07 02:39:34;;;;;;;83.38;38.22;;;;;;;17.58;100.00;100891.41;5016228;28;20057;-79
2022/09/07 02:42:00;;;;;;;82.82;38.00;;;;;;;17.48;100.00;100899.81;5033165;28;20049;-79
2022/09/07 02:44:33;;;;;;;101.13;42.42;;;;;;;17.81;100.00;100892.50;5029738;28;20037;-79
2022/09/07 02:47:28;;;;;;;97.03;40.13;;;;;;;17.79;100.00;100882.63;5031256;28;20487;-79
2022/09/07 02:50:11;;;;;;;95.95;41.13;;;;;;;17.84;100.00;100874.69;5034827;28;20152;-78
2022/09/07 02:52:50;;;;;;;88.78;35.05;;;;;;;17.53;100.00;100871.63;5028512;28;20026;-79
2022/09/07 02:55:25;;;;;;;79.15;37.72;;;;;;;17.73;100.00;100866.69;5012754;28;20033;-80
2022/09/07 02:58:31;;;;;;;82.05;35.13;;;;;;;17.71;100.00;100857.66;5020299;28;20113;-80
2022/09/07 03:01:20;;;;;;;90.13;35.05;;;;;;;17.58;100.00;100866.47;5027574;28;20115;-80
2022/09/07 03:04:10;;;;;;;75.72;34.45;;;;;;;17.49;100.00;100878.53;5018834;28;20029;-80
2022/09/07 03:06:42;;;;;;;85.70;38.35;;;;;;;17.58;100.00;100875.63;5021685;28;20076;-79
2022/09/07 03:09:15;;;;;;;92.10;39.28;;;;;;;17.60;100.00;100881.88;5021342;28;20032;-81
2022/09/07 03:11:41;;;;;;;;;;;;;;;17.53;100.00;100866.06;5017145;28;20549;-80
2022/09/07 03:14:21;;;;;;;80.82;33.08;;;;;;;17.46;100.00;100865.88;5007706;28;19921;-80
2022/09/07 03:16:48;;;;;;;92.97;39.15;;;;;;;17.49;100.00;100865.56;5025124;28;20113;-80
2022/09/07 03:19:21;;;;;;;91.88;31.58;;;;;;;17.50;100.00;100863.66;5028297;28;20109;-80
2022/09/07 03:21:53;;;;;;;65.15;31.65;;;;;;;17.44;100.00;100849.44;5011236;28;20394;-81
2022/09/07 03:24:21;;;;;;;82.78;33.90;;;;;;;17.37;100.00;100848.38;4989422;28;20485;-81
2022/09/07 03:26:54;;;;;;;84.10;36.00;;;;;;;17.36;100.00;100862.38;5021695;28;20034;-81
2022/09/07 03:29:23;;;;;;;94.07;38.35;;;;;;;17.30;100.00;100860.28;5021266;28;20057;-80
2022/09/07 03:31:49;;;;;;;98.15;40.83;;;;;;;17.33;100.00;100865.47;5023576;28;20049;-79
2022/09/07 03:34:15;;;;;;;83.22;36.92;;;;;;;17.34;100.00;100870.84;5021241;28;20490;-79
2022/09/07 03:36:42;;;;;;;88.30;37.15;;;;;;;17.23;100.00;100854.53;5031734;28;20125;-79
2022/09/07 03:39:13;;;;;;;76.38;34.42;;;;;;;17.47;100.00;100848.25;5018140;28;20033;-78
2022/09/07 03:41:39;;;;;;;80.35;33.65;;;;;;;17.43;100.00;100849.59;5011304;28;20363;-78
2022/09/07 03:44:06;;;;;;;86.65;34.60;;;;;;;17.39;100.00;100832.47;5035532;28;20033;-78
2022/09/07 03:46:33;;;;;;;76.38;32.67;;;;;;;17.40;100.00;100831.44;5018189;28;20038;-78
2022/09/07 03:48:58;;;;;;;84.32;35.80;;;;;;;17.30;100.00;100840.91;5016425;28;20532;-78
2022/09/07 03:51:28;;;;;;;92.07;35.50;;;;;;;17.25;100.00;100841.41;5030084;28;20512;-80
2022/09/07 03:54:00;;;;;;;88.85;35.60;;;;;;;17.22;100.00;100841.75;5011248;28;20116;-79
2022/09/07 03:56:30;;;;;;;86.15;37.58;;;;;;;17.13;100.00;100859.31;5007619;28;20402;-80
2022/09/07 03:58:56;;;;;;;99.30;37.05;;;;;;;17.24;100.00;100865.44;4992186;28;20017;-79
2022/09/07 04:01:25;;;;;;;118.18;47.58;;;;;;;17.45;100.00;100853.94;5021994;28;20056;-79
2022/09/07 04:03:51;;;;;;;103.65;44.22;;;;;;;17.48;100.00;100850.00;5008297;28;20026;-79
2022/09/07 04:06:25;;;;;;;114.63;44.72;;;;;;;17.50;100.00;100839.63;5036205;28;20038;-79
2022/09/07 04:08:51;;;;;;;109.78;47.22;;;;;;;17.42;100.00;100823.84;5017227;28;20046;-79
2022/09/07 04:11:18;;;;;;;109.68;45.33;;;;;;;17.47;100.00;100828.00;5027072;28;20056;-79
2022/09/07 04:13:45;;;;;;;112.10;43.80;;;;;;;17.39;100.00;100824.16;5015678;28;20495;-79
2022/09/07 04:16:19;;;;;;;95.57;42.30;;;;;;;17.24;100.00;100818.41;5003351;28;20038;-80
2022/09/07 04:18:53;;;;;;;95.95;41.55;;;;;;;17.29;100.00;100844.72;5017623;28;20029;-78
2022/09/07 04:21:24;;;;;;;105.72;46.25;;;;;;;17.39;100.00;100824.16;5035251;28;20030;-80
2022/09/07 04:23:51;;;;;;;104.55;44.70;;;;;;;17.41;100.00;100832.28;5021375;28;20449;-80
2022/09/07 04:26:21;;;;;;;99.93;41.88;;;;;;;17.25;100.00;100833.13;5037763;28;20036;-80
2022/09/07 04:28:47;;;;;;;103.75;41.08;;;;;;;17.25;100.00;100846.97;5036234;28;20042;-78
2022/09/07 04:31:23;;;;;;;108.50;42.03;;;;;;;17.21;100.00;100854.69;5037337;28;20068;-79
2022/09/07 04:33:57;;;;;;;100.15;41.53;;;;;;;17.19;100.00;100854.00;5036132;28;20063;-78
2022/09/07 04:36:24;;;;;;;111.88;47.03;;;;;;;17.26;100.00;100859.75;4995786;28;20048;-78
2022/09/07 04:38:58;;;;;;;126.00;50.47;;;;;;;17.36;100.00;100854.94;5013657;28;20030;-78
2022/09/07 04:41:30;;;;;;;129.13;50.17;;;;;;;17.40;100.00;100852.72;5018720;28;20125;-79
2022/09/07 04:43:59;;;;;;;124.57;49.85;;;;;;;17.31;100.00;100857.34;5026783;28;20037;-79
2022/09/07 04:46:32;;;;;;;121.55;50.85;;;;;;;17.17;100.00;100869.91;5022537;28;20088;-80
2022/09/07 04:49:08;;;;;;;133.73;48.53;;;;;;;17.24;100.00;100868.19;5033967;28;20040;-78
2022/09/07 04:51:43;;;;;;;143.40;55.65;;;;;;;17.31;100.00;100851.81;5024742;28;20184;-79
2022/09/07 04:54:10;;;;;;;133.18;50.70;;;;;;;17.15;100.00;100851.72;5031064;28;20394;-80
2022/09/07 04:56:39;;;;;;;150.27;56.17;;;;;;;17.12;100.00;100840.97;5031425;28;20381;-79
2022/09/07 04:59:05;;;;;;;141.63;57.15;;;;;;;17.11;100.00;100836.50;4988328;28;20026;-78
2022/09/07 05:01:32;;;;;;;134.57;53.42;;;;;;;16.99;100.00;100834.00;5006560;28;20037;-79
2022/09/07 05:04:00;;;;;;;131.60;54.78;;;;;;;16.96;100.00;100850.06;5030642;28;20025;-79
2022/09/07 05:06:25;;;;;;;149.65;59.47;;;;;;;16.98;100.00;100843.34;5012469;28;20033;-79
2022/09/07 05:08:52;;;;;;;155.48;58.67;;;;;;;17.00;100.00;100852.31;4996923;28;20455;-79
2022/09/07 05:11:19;;;;;;;160.50;61.08;;;;;;;17.02;100.00;100841.09;5018982;28;20033;-79
2022/09/07 05:13:48;;;;;;;150.43;58.15;;;;;;;17.08;100.00;100841.31;5028210;28;20041;-79
2022/09/07 05:16:22;;;;;;;168.35;62.92;;;;;;;17.20;100.00;100828.06;5035054;28;20033;-79
2022/09/07 05:19:00;;;;;;;142.85;56.78;;;;;;;17.10;100.00;100846.69;5023793;28;20439;-79
2022/09/07 05:21:32;;;;;;;159.48;60.70;;;;;;;17.19;100.00;100854.00;5019863;28;20493;-79
2022/09/07 05:24:04;;;;;;;141.45;54.75;;;;;;;17.09;100.00;100862.41;5030808;28;20120;-79
2022/09/07 05:26:33;;;;;;;147.48;58.83;;;;;;;17.03;100.00;100865.84;5035413;28;20032;-79
2022/09/07 05:29:03;;;;;;;149.43;57.28;;;;;;;17.03;100.00;100868.59;5017348;28;20064;-79
2022/09/07 05:31:29;;;;;;;160.70;61.28;;;;;;;16.99;100.00;100869.97;5023345;28;20029;-80
2022/09/07 05:33:56;;;;;;;149.55;58.40;;;;;;;17.15;100.00;100868.31;5044255;28;20028;-79
2022/09/07 05:36:26;;;;;;;149.52;57.63;;;;;;;17.15;100.00;100877.50;5020256;28;20041;-79
2022/09/07 05:38:53;;;;;;;145.32;58.33;;;;;;;17.17;100.00;100866.28;5025759;28;20025;-79
2022/09/07 05:41:20;;;;;;;145.18;59.63;;;;;;;17.20;100.00;100874.22;5022657;28;20115;-79
2022/09/07 05:43:47;;;;;;;161.63;63.13;;;;;;;17.22;100.00;100861.97;5018820;28;20030;-80
2022/09/07 05:46:20;;;;;;;171.27;68.05;;;;;;;17.27;100.00;100870.66;5020980;28;20034;-79
2022/09/07 05:48:47;;;;;;;181.05;70.47;;;;;;;17.37;100.00;100873.28;5021311;28;20101;-79
2022/09/07 05:51:15;;;;;;;168.75;69.03;;;;;;;17.42;100.00;100867.25;5020377;28;20053;-80
2022/09/07 05:53:46;;;;;;;161.70;70.07;;;;;;;17.43;100.00;100869.88;5004071;28;20406;-80
2022/09/07 05:56:16;;;;;;;156.82;66.43;;;;;;;17.54;100.00;100853.97;5021121;28;20358;-79
2022/09/07 05:58:42;;;;;;;160.65;64.63;;;;;;;17.46;100.00;100865.88;4985914;28;20034;-79
2022/09/07 06:01:12;;;;;;;167.48;70.15;;;;;;;17.64;100.00;100869.44;5016532;28;20095;-79
2022/09/07 06:03:39;;;;;;;159.32;63.97;;;;;;;17.48;100.00;100866.59;5018822;28;20065;-78
2022/09/07 06:06:18;;;;;;;157.38;66.88;;;;;;;17.52;100.00;100878.22;5002168;28;20021;-79
2022/09/07 06:08:49;;;;;;;169.60;67.53;;;;;;;17.48;100.00;100866.59;5018268;28;20034;-80
2022/09/07 06:11:21;;;;;;;168.00;69.82;;;;;;;17.44;100.00;100863.28;5019387;28;20109;-79
2022/09/07 06:13:56;;;;;;;180.93;70.43;;;;;;;17.44;100.00;100876.25;5016553;28;20081;-78
2022/09/07 06:16:21;;;;;;;159.70;67.32;;;;;;;17.36;100.00;100879.84;5048540;28;20029;-78
2022/09/07 06:18:52;;;;;;;164.93;65.22;;;;;;;17.42;100.00;100881.97;5050659;28;20040;-79
2022/09/07 06:21:23;;;;;;;159.95;68.57;;;;;;;17.45;100.00;100878.00;5012543;28;20057;-77
2022/09/07 06:23:50;;;;;;;167.88;69.03;;;;;;;17.42;100.00;100883.88;5033734;28;20033;-78
2022/09/07 06:26:17;;;;;;;187.65;71.03;;;;;;;17.35;100.00;100883.66;5031397;28;20436;-78
2022/09/07 06:28:46;;;;;;;173.90;70.38;;;;;;;17.33;100.00;100894.03;5002973;28;20064;-77
2022/09/07 06:31:14;;;;;;;183.75;68.85;;;;;;;17.24;100.00;100890.34;5011800;28;20401;-78
2022/09/07 06:33:47;;;;;;;199.95;77.32;;;;;;;17.30;100.00;100887.94;5013909;28;20037;-77
2022/09/07 06:36:14;;;;;;;184.35;75.35;;;;;;;17.36;100.00;100879.00;5011449;28;20044;-77
2022/09/07 06:38:46;;;;;;;196.63;74.90;;;;;;;17.53;100.00;100874.38;5012493;28;20036;-77
2022/09/07 06:41:18;;;;;;;190.23;73.70;;;;;;;17.54;100.00;100884.44;5016542;28;20049;-76
2022/09/07 06:43:45;;;;;;;153.85;67.07;;;;;;;17.55;100.00;100878.72;5012032;28;20076;-77
2022/09/07 06:46:14;;;;;;;165.07;68.60;;;;;;;17.54;100.00;100884.44;5026850;28;20124;-77
2022/09/07 06:48:42;;;;;;;160.35;66.38;;;;;;;17.60;100.00;100886.53;5026930;28;20037;-78
2022/09/07 06:51:15;;;;;;;171.93;66.13;;;;;;;17.60;100.00;100901.25;5014033;28;20043;-77
2022/09/07 06:53:44;;;;;;;161.45;63.05;;;;;;;17.71;100.00;100913.06;5016466;28;20044;-77
2022/09/07 06:56:12;;;;;;;167.80;60.88;;;;;;;17.66;100.00;100919.13;5033626;28;20073;-79
2022/09/07 06:58:38;;;;;;;166.02;61.97;;;;;;;17.56;100.00;100908.16;5026723;28;20420;-79
2022/09/07 07:01:13;;;;;;;183.43;63.78;;;;;;;17.56;100.00;100912.81;5023913;28;20084;-78
2022/09/07 07:03:43;;;;;;;169.20;63.42;;;;;;;17.58;100.00;100908.88;5034239;28;20033;-79
2022/09/07 07:06:12;;;;;;;173.05;62.55;;;;;;;17.55;100.00;100914.72;5041174;28;20022;-79
2022/09/07 07:08:41;;;;;;;185.77;64.47;;;;;;;17.56;100.00;100927.56;5006230;28;20413;-78
2022/09/07 07:11:12;;;;;;;185.45;62.00;;;;;;;17.58;100.00;100931.00;5023035;28;20038;-77
2022/09/07 07:13:45;;;;;;;199.73;66.47;;;;;;;17.67;100.00;100929.13;5024737;28;20045;-78
2022/09/07 07:16:13;;;;;;;197.55;65.43;;;;;;;17.71;100.00;100933.31;5041155;28;20445;-77
2022/09/07 07:18:41;;;;;;;190.45;67.07;;;;;;;17.62;100.00;100923.25;5034617;28;20033;-78
2022/09/07 07:21:16;;;;;;;229.30;74.22;;;;;;;17.50;100.00;100932.88;5027781;28;20052;-78
2022/09/07 07:23:48;;;;;;;252.40;78.32;;;;;;;17.39;100.00;100925.72;5026020;28;20104;-78
2022/09/07 07:26:25;;;;;;;229.48;76.57;;;;;;;17.51;100.00;100927.19;5035061;28;20041;-78
2022/09/07 07:28:53;;;;;;;239.30;78.65;;;;;;;17.48;100.00;100921.97;5009721;28;20034;-78
2022/09/07 07:31:23;;;;;;;239.25;79.30;;;;;;;17.66;100.00;100927.44;5042973;28;20385;-78
2022/09/07 07:33:51;;;;;;;216.02;73.78;;;;;;;17.72;100.00;100931.41;5037315;28;20026;-78
2022/09/07 07:36:22;;;;;;;227.18;75.60;;;;;;;17.86;100.00;100929.94;5030031;28;20041;-78
2022/09/07 07:38:56;;;;;;;197.57;71.78;;;;;;;17.96;100.00;100923.22;5023110;28;20094;-77
2022/09/07 07:41:30;;;;;;;199.32;71.88;;;;;;;17.98;100.00;100928.59;5021727;28;20054;-78
2022/09/07 07:43:58;;;;;;;194.53;68.40;;;;;;;17.82;100.00;100932.13;5021985;28;20369;-78
2022/09/07 07:46:25;;;;;;;203.35;71.57;;;;;;;17.91;100.00;100935.88;5013063;28;20297;-78
2022/09/07 07:48:55;;;;;;;202.90;70.20;;;;;;;17.97;100.00;100921.31;5011741;28;20339;-78
2022/09/07 07:51:26;;;;;;;184.57;66.88;;;;;;;18.40;100.00;100930.44;5035888;28;20449;-78
2022/09/07 07:53:52;;;;;;;194.68;68.05;;;;;;;18.39;100.00;100933.38;5014400;28;20056;-78
2022/09/07 07:56:18;;;;;;;188.35;71.35;;;;;;;18.27;100.00;100932.84;5043706;28;20417;-78
2022/09/07 07:58:46;;;;;;;187.00;69.82;;;;;;;18.31;100.00;100926.78;5026315;28;20040;-78
2022/09/07 08:01:16;;;;;;;182.70;66.35;;;;;;;18.42;100.00;100930.28;5038672;28;20128;-78
2022/09/07 08:03:47;;;;;;;196.25;69.07;;;;;;;18.34;100.00;100936.66;5024166;28;20026;-78
2022/09/07 08:06:19;;;;;;;176.80;64.90;;;;;;;18.26;100.00;100936.66;5019457;28;20044;-78
2022/09/07 08:08:45;;;;;;;188.25;66.68;;;;;;;18.37;100.00;100939.09;5017731;28;20405;-77
2022/09/07 08:11:17;;;;;;;198.57;66.50;;;;;;;18.36;100.00;100938.25;5018983;28;20041;-78
2022/09/07 08:13:48;;;;;;;201.63;68.93;;;;;;;18.48;100.00;100946.19;5018317;28;20389;-77
2022/09/07 08:16:18;;;;;;;180.80;66.95;;;;;;;18.50;100.00;100942.22;5003548;28;20034;-78
2022/09/07 08:18:45;;;;;;;182.82;68.57;;;;;;;18.42;100.00;100945.00;5018680;28;20409;-78
2022/09/07 08:21:15;;;;;;;160.30;63.83;;;;;;;18.62;100.00;100953.00;4986764;28;20038;-77
2022/09/07 08:23:48;;;;;;;175.75;65.97;;;;;;;18.56;100.00;100948.97;5000138;28;20040;-77
2022/09/07 08:26:13;;;;;;;189.38;66.93;;;;;;;18.64;100.00;100943.44;5025299;28;20144;-77
2022/09/07 08:28:42;;;;;;;178.27;65.43;;;;;;;18.96;100.00;100955.63;4998236;28;20034;-77
2022/09/07 08:31:12;;;;;;;173.48;67.60;;;;;;;19.02;100.00;100957.72;4998440;28;20092;-76
2022/09/07 08:33:38;;;;;;;172.98;66.35;;;;;;;19.01;100.00;100966.22;5028468;28;20033;-77
2022/09/07 08:36:13;;;;;;;157.23;61.80;;;;;;;19.01;100.00;100961.53;4998218;28;20084;-77
2022/09/07 08:38:45;;;;;;;161.70;60.55;;;;;;;19.33;100.00;100965.28;4997958;28;20033;-77
2022/09/07 08:41:25;;;;;;;153.18;60.10;;;;;;;19.93;100.00;100965.84;5015362;28;20561;-77
2022/09/07 08:44:15;;;;;;;166.23;60.28;;;;;;;20.99;100.00;100967.13;5030576;28;20039;-77
2022/09/07 08:46:49;;;;;;;148.50;58.10;;;;;;;21.01;100.00;100955.78;5033890;28;20104;-77
2022/09/07 08:49:21;;;;;;;136.45;54.00;;;;;;;20.44;100.00;100955.13;5032317;28;20034;-77
2022/09/07 08:52:02;;;;;;;148.02;55.17;;;;;;;20.46;100.00;100961.38;5015413;28;20048;-77
2022/09/07 08:54:29;;;;;;;146.45;54.80;;;;;;;19.80;100.00;100958.09;5015090;28;20029;-77
2022/09/07 08:57:02;;;;;;;136.45;54.80;;;;;;;19.86;100.00;100962.03;5014028;28;20048;-77
2022/09/07 08:59:54;;;;;;;144.25;52.53;;;;;;;20.80;100.00;100974.03;5014000;28;20029;-77
2022/09/07 09:02:20;;;;;;;133.90;51.70;;;;;;;20.81;100.00;100969.34;5029134;28;20093;-77
2022/09/07 09:04:46;;;;;;;128.52;47.92;;;;;;;21.82;100.00;100981.97;5014004;28;20033;-77
2022/09/07 09:07:42;;;;;;;116.82;47.13;;;;;;;22.35;100.00;100969.78;5013924;28;20060;-78
2022/09/07 09:10:41;;;;;;;106.63;45.38;;;;;;;22.29;100.00;100974.22;4999122;28;20030;-77
2022/09/07 09:13:29;;;;;;;111.57;45.08;;;;;;;21.72;100.00;100970.22;5035153;28;20481;-77
2022/09/07 09:16:24;;;;;;;104.80;43.40;;;;;;;21.60;100.00;100980.97;5036423;28;20049;-77
2022/09/07 09:19:01;;;;;;;99.35;43.50;;;;;;;22.37;100.00;100971.31;5034587;28;20037;-77
2022/09/07 09:21:27;;;;;;;102.43;42.25;;;;;;;22.83;100.00;100978.47;5009387;28;20046;-77
2022/09/07 09:24:16;;;;;;;87.45;39.75;;;;;;;22.76;100.00;100971.97;5014239;28;20099;-77
2022/09/07 09:26:45;;;;;;;93.50;38.95;;;;;;;23.16;100.00;100979.88;5021185;28;20034;-77
2022/09/07 09:29:17;;;;;;;80.38;36.65;;;;;;;23.61;100.00;100977.63;5014496;28;20089;-77
2022/09/07 09:31:43;;;;;;;80.28;35.80;;;;;;;23.46;100.00;100980.53;5021763;28;20029;-77
2022/09/07 09:34:16;;;;;;;64.78;31.48;;;;;;;23.69;100.00;100983.06;5033174;28;20124;-77
2022/09/07 09:36:49;;;;;;;77.55;32.20;;;;;;;24.25;100.00;100986.84;5000749;28;20041;-77
2022/09/07 09:39:37;;;;;;;69.63;29.52;;;;;;;24.52;100.00;100985.00;5031836;28;20025;-77
2022/09/07 09:42:23;;;;;;;57.47;28.10;;;;;;;23.80;100.00;100979.69;5027759;28;20092;-77
2022/09/07 09:44:49;;;;;;;58.78;26.27;;;;;;;23.35;100.00;100986.69;5013922;28;20038;-77
2022/09/07 09:47:31;;;;;;;;;;;;;;;22.55;100.00;100979.25;5021100;28;20029;-77
2022/09/07 09:50:05;;;;;;;59.08;23.63;;;;;;;21.93;100.00;100979.75;5002005;28;20008;-77
2022/09/07 09:52:38;;;;;;;50.80;23.55;;;;;;;22.86;100.00;100980.88;5013634;28;20084;-77
2022/09/07 09:55:32;;;;;;;47.88;21.77;;;;;;;23.08;100.00;100987.31;4997793;28;20037;-77
2022/09/07 09:58:05;;;;;;;46.97;21.35;;;;;;;22.45;100.00;100975.94;5013606;28;20064;-77
2022/09/07 10:00:33;;;;;;;49.00;21.20;;;;;;;22.86;100.00;100978.06;5012860;28;20108;-77
2022/09/07 10:03:13;;;;;;;40.22;19.88;;;;;;;22.51;100.00;100971.47;5021973;28;20137;-77
2022/09/07 10:05:41;;;;;;;45.08;20.23;;;;;;;22.28;100.00;100960.44;5039021;28;20087;-77
2022/09/07 10:08:29;;;;;;;40.55;19.42;;;;;;;22.71;100.00;100968.88;5027910;28;20036;-77
2022/09/07 10:11:01;;;;;;;42.80;17.27;;;;;;;22.89;100.00;100972.09;5029275;28;20048;-77
2022/09/07 10:13:38;;;;;;;32.30;16.58;;;;;;;22.97;100.00;100975.81;5014513;28;20540;-77
2022/09/07 10:16:06;;;;;;;35.60;16.90;;;;;;;23.34;100.00;100966.28;5013288;28;20042;-77
2022/09/07 10:18:54;;;;;;;36.08;16.17;;;;;;;23.80;100.00;100973.25;5012630;28;20080;-77
2022/09/07 10:21:24;;;;;;;29.63;14.65;;;;;;;23.94;100.00;100963.03;5013833;28;20482;-77
2022/09/07 10:24:19;;;;;;;36.70;11.85;;;;;;;24.26;100.00;100964.25;5011418;28;20029;-77
2022/09/07 10:26:47;;;;;;;23.67;12.00;;;;;;;24.69;100.00;100966.75;5014732;28;20058;-77
2022/09/07 10:29:35;;;;;;;32.10;12.98;;;;;;;24.67;100.00;100966.13;5012269;28;20442;-77
2022/09/07 10:32:19;;;;;;;28.02;11.73;;;;;;;24.74;100.00;100967.00;4999012;28;20029;-77
2022/09/07 10:35:13;;;;;;;30.23;11.05;;;;;;;25.01;100.00;100966.19;5031379;28;20041;-77
2022/09/07 10:37:47;;;;;;;25.35;10.40;;;;;;;24.20;100.00;100967.88;5033680;28;20037;-77
2022/09/07 10:40:23;;;;;;;32.25;12.27;;;;;;;23.92;100.00;100963.22;5028875;28;20046;-77
2022/09/07 10:43:28;;;;;;;32.60;12.20;;;;;;;24.25;100.00;100958.84;5013572;28;20501;-77
2022/09/07 10:46:05;;;;;;;28.13;10.68;;;;;;;25.00;100.00;100964.44;5028999;28;20034;-77
2022/09/07 10:48:49;;;;;;;20.15;10.70;;;;;;;23.97;100.00;100949.50;4996765;28;20038;-77
2022/09/07 10:51:49;;;;;;;22.15;9.48;;;;;;;24.19;100.00;100950.22;5028812;28;20523;-77
2022/09/07 10:54:50;;;;;;;28.33;7.65;;;;;;;24.34;100.00;100944.47;5012369;28;20109;-77
2022/09/07 10:57:30;;;;;;;13.73;6.35;;;;;;;24.14;100.00;100947.22;4995593;28;20040;-77
2022/09/07 11:00:11;;;;;;;11.82;4.88;;;;;;;25.22;100.00;100949.16;4996089;28;20122;-77
2022/09/07 11:02:37;;;;;;;14.32;4.53;;;;;;;24.99;100.00;100948.69;5027703;28;20038;-77
2022/09/07 11:05:24;;;;;;;15.38;4.78;;;;;;;24.85;100.00;100947.84;5011991;28;20029;-76
2022/09/07 11:08:12;;;;;;;13.25;4.80;;;;;;;25.24;100.00;100938.59;4995942;28;20041;-77
2022/09/07 11:10:50;;;;;;;20.35;4.45;;;;;;;25.53;100.00;100947.66;5012260;28;20385;-77
2022/09/07 11:13:21;;;;;;;13.05;4.50;;;;;;;25.38;100.00;100942.25;5013324;28;20037;-77
2022/09/07 11:15:59;;;;;;;16.33;4.53;;;;;;;25.10;100.00;100948.94;5013260;28;20507;-77
2022/09/07 11:18:31;;;;;;;18.35;5.82;;;;;;;24.74;100.00;100936.22;5021995;28;20044;-77
2022/09/07 11:21:00;;;;;;;12.32;5.22;;;;;;;24.85;100.00;100931.91;5031815;28;20026;-77
2022/09/07 11:23:40;;;;;;;14.20;4.90;;;;;;;25.38;100.00;100942.25;5010835;28;20037;-77
2022/09/07 11:26:38;;;;;;;8.27;3.40;;;;;;;25.56;100.00;100937.91;5017792;28;20025;-77